sensor_id;sensor_type;location;lat;lon;timestamp;temperature;humidity
78455;SHT31;67751;51.986;5.696;2023-06-22T00:02:23;21.9;64.2
78455;SHT31;67751;51.986;5.696;2023-06-22T00:04:53;21.9;64.1
78455;SHT31;67751;51.986;5.696;2023-06-22T00:07:23;21.9;64.5
78455;SHT31;67751;51.986;5.696;2023-06-22T00:09:52;21.9;64.3
78455;SHT31;67751;51.986;5.696;2023-06-22T00:12:22;21.9;64.0
78455;SHT31;67751;51.986;5.696;2023-06-22T00:14:51;21.8;63.9
78455;SHT31;67751;51.986;5.696;2023-06-22T00:17:21;21.8;64.0
78455;SHT31;67751;51.986;5.696;2023-06-22T00:19:51;21.8;63.6
78455;SHT31;67751;51.986;5.696;2023-06-22T00:22:23;21.8;63.8
78455;SHT31;67751;51.986;5.696;2023-06-22T00:24:56;21.8;63.5
78455;SHT31;67751;51.986;5.696;2023-06-22T00:27:28;21.7;64.0
78455;SHT31;67751;51.986;5.696;2023-06-22T00:29:57;21.7;63.8
78455;SHT31;67751;51.986;5.696;2023-06-22T00:32:27;21.7;64.4
78455;SHT31;67751;51.986;5.696;2023-06-22T00:34:56;21.7;63.8
78455;SHT31;67751;51.986;5.696;2023-06-22T00:37:27;21.6;63.7
78455;SHT31;67751;51.986;5.696;2023-06-22T00:39:57;21.6;63.3
78455;SHT31;67751;51.986;5.696;2023-06-22T00:42:27;21.6;63.7
78455;SHT31;67751;51.986;5.696;2023-06-22T00:44:56;21.6;64.0
78455;SHT31;67751;51.986;5.696;2023-06-22T00:47:29;21.5;64.3
78455;SHT31;67751;51.986;5.696;2023-06-22T00:50:00;21.5;64.6
78455;SHT31;67751;51.986;5.696;2023-06-22T00:52:34;21.5;64.3
78455;SHT31;67751;51.986;5.696;2023-06-22T00:55:05;21.5;63.9
78455;SHT31;67751;51.986;5.696;2023-06-22T00:57:36;21.4;64.7
78455;SHT31;67751;51.986;5.696;2023-06-22T01:00:07;21.4;64.7
78455;SHT31;67751;51.986;5.696;2023-06-22T01:02:42;21.4;64.6
78455;SHT31;67751;51.986;5.696;2023-06-22T01:05:14;21.4;64.8
78455;SHT31;67751;51.986;5.696;2023-06-22T01:07:55;21.4;64.7
78455;SHT31;67751;51.986;5.696;2023-06-22T01:10:31;21.4;64.7
78455;SHT31;67751;51.986;5.696;2023-06-22T01:13:07;21.4;64.7
78455;SHT31;67751;51.986;5.696;2023-06-22T01:15:46;21.3;64.7
78455;SHT31;67751;51.986;5.696;2023-06-22T01:18:21;21.3;64.5
78455;SHT31;67751;51.986;5.696;2023-06-22T01:20:55;21.3;64.3
78455;SHT31;67751;51.986;5.696;2023-06-22T01:23:36;21.3;64.5
78455;SHT31;67751;51.986;5.696;2023-06-22T01:26:17;21.3;64.4
78455;SHT31;67751;51.986;5.696;2023-06-22T01:28:49;21.3;64.6
78455;SHT31;67751;51.986;5.696;2023-06-22T01:31:23;21.3;64.9
78455;SHT31;67751;51.986;5.696;2023-06-22T01:33:57;21.3;64.5
78455;SHT31;67751;51.986;5.696;2023-06-22T01:36:30;21.3;64.6
78455;SHT31;67751;51.986;5.696;2023-06-22T01:39:02;21.2;65.2
78455;SHT31;67751;51.986;5.696;2023-06-22T01:41:37;21.2;65.1
78455;SHT31;67751;51.986;5.696;2023-06-22T01:44:08;21.2;64.9
78455;SHT31;67751;51.986;5.696;2023-06-22T01:46:39;21.2;64.5
78455;SHT31;67751;51.986;5.696;2023-06-22T01:49:12;21.2;64.2
78455;SHT31;67751;51.986;5.696;2023-06-22T01:51:42;21.2;64.9
78455;SHT31;67751;51.986;5.696;2023-06-22T01:54:12;21.2;64.9
78455;SHT31;67751;51.986;5.696;2023-06-22T01:56:41;21.2;64.5
78455;SHT31;67751;51.986;5.696;2023-06-22T01:59:15;21.2;64.3
78455;SHT31;67751;51.986;5.696;2023-06-22T02:01:54;21.1;64.6
78455;SHT31;67751;51.986;5.696;2023-06-22T02:04:29;21.1;64.7
78455;SHT31;67751;51.986;5.696;2023-06-22T02:07:07;21.1;64.8
78455;SHT31;67751;51.986;5.696;2023-06-22T02:09:44;21.1;64.6
78455;SHT31;67751;51.986;5.696;2023-06-22T02:12:20;21.1;64.9
78455;SHT31;67751;51.986;5.696;2023-06-22T02:14:51;21.0;65.0
78455;SHT31;67751;51.986;5.696;2023-06-22T02:17:22;21.0;64.8
78455;SHT31;67751;51.986;5.696;2023-06-22T02:19:52;21.0;64.8
78455;SHT31;67751;51.986;5.696;2023-06-22T02:22:22;21.0;64.9
78455;SHT31;67751;51.986;5.696;2023-06-22T02:24:52;21.0;64.8
78455;SHT31;67751;51.986;5.696;2023-06-22T02:27:22;20.9;65.0
78455;SHT31;67751;51.986;5.696;2023-06-22T02:29:53;20.9;65.0
78455;SHT31;67751;51.986;5.696;2023-06-22T02:32:23;20.9;64.9
78455;SHT31;67751;51.986;5.696;2023-06-22T02:34:53;20.9;64.9
78455;SHT31;67751;51.986;5.696;2023-06-22T02:37:22;20.9;65.1
78455;SHT31;67751;51.986;5.696;2023-06-22T02:39:54;20.8;65.2
78455;SHT31;67751;51.986;5.696;2023-06-22T02:42:24;20.8;65.4
78455;SHT31;67751;51.986;5.696;2023-06-22T02:44:53;20.8;65.4
78455;SHT31;67751;51.986;5.696;2023-06-22T02:47:23;20.8;65.2
78455;SHT31;67751;51.986;5.696;2023-06-22T02:49:53;20.8;65.3
78455;SHT31;67751;51.986;5.696;2023-06-22T02:52:22;20.7;65.5
78455;SHT31;67751;51.986;5.696;2023-06-22T02:54:52;20.7;65.8
78455;SHT31;67751;51.986;5.696;2023-06-22T02:57:21;20.7;65.7
78455;SHT31;67751;51.986;5.696;2023-06-22T02:59:51;20.6;65.5
78455;SHT31;67751;51.986;5.696;2023-06-22T03:02:22;20.6;65.9
78455;SHT31;67751;51.986;5.696;2023-06-22T03:04:53;20.6;66.0
78455;SHT31;67751;51.986;5.696;2023-06-22T03:07:25;20.6;65.9
78455;SHT31;67751;51.986;5.696;2023-06-22T03:09:55;20.6;66.2
78455;SHT31;67751;51.986;5.696;2023-06-22T03:12:24;20.5;65.7
78455;SHT31;67751;51.986;5.696;2023-06-22T03:14:54;20.5;66.0
78455;SHT31;67751;51.986;5.696;2023-06-22T03:17:24;20.5;66.2
78455;SHT31;67751;51.986;5.696;2023-06-22T03:19:54;20.5;66.2
78455;SHT31;67751;51.986;5.696;2023-06-22T03:22:23;20.5;66.4
78455;SHT31;67751;51.986;5.696;2023-06-22T03:24:55;20.4;66.4
78455;SHT31;67751;51.986;5.696;2023-06-22T03:27:24;20.4;66.4
78455;SHT31;67751;51.986;5.696;2023-06-22T03:29:56;20.4;66.5
78455;SHT31;67751;51.986;5.696;2023-06-22T03:32:26;20.4;66.9
78455;SHT31;67751;51.986;5.696;2023-06-22T03:34:58;20.4;66.8
78455;SHT31;67751;51.986;5.696;2023-06-22T03:37:28;20.3;66.7
78455;SHT31;67751;51.986;5.696;2023-06-22T03:39:58;20.3;66.9
78455;SHT31;67751;51.986;5.696;2023-06-22T03:42:28;20.3;67.0
78455;SHT31;67751;51.986;5.696;2023-06-22T03:44:57;20.2;67.2
78455;SHT31;67751;51.986;5.696;2023-06-22T03:47:28;20.2;67.3
78455;SHT31;67751;51.986;5.696;2023-06-22T03:49:58;20.2;67.8
78455;SHT31;67751;51.986;5.696;2023-06-22T03:52:27;20.2;67.4
78455;SHT31;67751;51.986;5.696;2023-06-22T03:54:57;20.2;67.5
78455;SHT31;67751;51.986;5.696;2023-06-22T03:57:27;20.2;67.4
78455;SHT31;67751;51.986;5.696;2023-06-22T03:59:57;20.2;67.6
78455;SHT31;67751;51.986;5.696;2023-06-22T04:02:28;20.2;67.8
78455;SHT31;67751;51.986;5.696;2023-06-22T04:05:00;20.1;68.1
78455;SHT31;67751;51.986;5.696;2023-06-22T04:07:29;20.1;67.9
78455;SHT31;67751;51.986;5.696;2023-06-22T04:09:59;20.1;68.0
78455;SHT31;67751;51.986;5.696;2023-06-22T04:12:29;20.1;68.5
78455;SHT31;67751;51.986;5.696;2023-06-22T04:14:58;20.1;68.3
78455;SHT31;67751;51.986;5.696;2023-06-22T04:17:28;20.1;68.3
78455;SHT31;67751;51.986;5.696;2023-06-22T04:19:57;20.1;68.5
78455;SHT31;67751;51.986;5.696;2023-06-22T04:22:27;20.1;68.7
78455;SHT31;67751;51.986;5.696;2023-06-22T04:24:56;20.1;68.8
78455;SHT31;67751;51.986;5.696;2023-06-22T04:27:26;20.1;69.0
78455;SHT31;67751;51.986;5.696;2023-06-22T04:29:56;20.1;69.1
78455;SHT31;67751;51.986;5.696;2023-06-22T04:32:27;20.1;69.3
78455;SHT31;67751;51.986;5.696;2023-06-22T04:34:57;20.1;69.2
78455;SHT31;67751;51.986;5.696;2023-06-22T04:37:27;20.1;69.2
78455;SHT31;67751;51.986;5.696;2023-06-22T04:39:57;20.1;69.5
78455;SHT31;67751;51.986;5.696;2023-06-22T04:42:27;20.1;69.6
78455;SHT31;67751;51.986;5.696;2023-06-22T04:44:59;20.1;70.1
78455;SHT31;67751;51.986;5.696;2023-06-22T04:47:29;20.1;70.3
78455;SHT31;67751;51.986;5.696;2023-06-22T04:49:59;20.1;70.6
78455;SHT31;67751;51.986;5.696;2023-06-22T04:52:33;20.1;70.5
78455;SHT31;67751;51.986;5.696;2023-06-22T04:55:04;20.1;70.6
78455;SHT31;67751;51.986;5.696;2023-06-22T04:57:34;20.2;70.9
78455;SHT31;67751;51.986;5.696;2023-06-22T05:00:07;20.2;70.8
78455;SHT31;67751;51.986;5.696;2023-06-22T05:02:46;20.2;70.5
78455;SHT31;67751;51.986;5.696;2023-06-22T05:05:15;20.3;70.5
78455;SHT31;67751;51.986;5.696;2023-06-22T05:07:46;20.3;71.0
78455;SHT31;67751;51.986;5.696;2023-06-22T05:10:18;20.3;71.0
78455;SHT31;67751;51.986;5.696;2023-06-22T05:12:48;20.3;70.6
78455;SHT31;67751;51.986;5.696;2023-06-22T05:15:17;20.4;70.8
78455;SHT31;67751;51.986;5.696;2023-06-22T05:17:49;20.4;70.7
78455;SHT31;67751;51.986;5.696;2023-06-22T05:20:19;20.4;70.8
78455;SHT31;67751;51.986;5.696;2023-06-22T05:22:49;20.4;70.9
78455;SHT31;67751;51.986;5.696;2023-06-22T05:25:19;20.4;70.9
78455;SHT31;67751;51.986;5.696;2023-06-22T05:27:49;20.5;71.0
78455;SHT31;67751;51.986;5.696;2023-06-22T05:30:19;20.5;71.1
78455;SHT31;67751;51.986;5.696;2023-06-22T05:32:48;20.5;71.3
78455;SHT31;67751;51.986;5.696;2023-06-22T05:35:20;20.5;71.1
78455;SHT31;67751;51.986;5.696;2023-06-22T05:37:49;20.5;71.3
78455;SHT31;67751;51.986;5.696;2023-06-22T05:40:19;20.6;70.9
78455;SHT31;67751;51.986;5.696;2023-06-22T05:42:51;20.6;71.4
78455;SHT31;67751;51.986;5.696;2023-06-22T05:45:20;20.6;71.7
78455;SHT31;67751;51.986;5.696;2023-06-22T05:47:50;20.6;71.4
78455;SHT31;67751;51.986;5.696;2023-06-22T05:50:20;20.7;71.1
78455;SHT31;67751;51.986;5.696;2023-06-22T05:52:49;20.7;71.6
78455;SHT31;67751;51.986;5.696;2023-06-22T05:55:19;20.7;71.4
78455;SHT31;67751;51.986;5.696;2023-06-22T05:57:49;20.8;71.0
78455;SHT31;67751;51.986;5.696;2023-06-22T06:00:19;20.8;71.2
78455;SHT31;67751;51.986;5.696;2023-06-22T06:02:51;20.8;71.1
78455;SHT31;67751;51.986;5.696;2023-06-22T06:05:20;20.9;70.9
78455;SHT31;67751;51.986;5.696;2023-06-22T06:07:51;20.9;70.4
78455;SHT31;67751;51.986;5.696;2023-06-22T06:10:21;20.9;70.4
78455;SHT31;67751;51.986;5.696;2023-06-22T06:12:50;20.9;70.6
78455;SHT31;67751;51.986;5.696;2023-06-22T06:15:20;21.0;71.0
78455;SHT31;67751;51.986;5.696;2023-06-22T06:17:51;21.0;70.4
78455;SHT31;67751;51.986;5.696;2023-06-22T06:20:22;21.0;71.1
78455;SHT31;67751;51.986;5.696;2023-06-22T06:22:52;21.0;71.2
78455;SHT31;67751;51.986;5.696;2023-06-22T06:25:22;21.1;70.9
78455;SHT31;67751;51.986;5.696;2023-06-22T06:27:52;21.1;71.1
78455;SHT31;67751;51.986;5.696;2023-06-22T06:30:23;21.2;70.8
78455;SHT31;67751;51.986;5.696;2023-06-22T06:32:53;21.2;71.1
78455;SHT31;67751;51.986;5.696;2023-06-22T06:35:23;21.2;70.7
78455;SHT31;67751;51.986;5.696;2023-06-22T06:37:52;21.3;70.2
78455;SHT31;67751;51.986;5.696;2023-06-22T06:40:22;21.3;70.4
78455;SHT31;67751;51.986;5.696;2023-06-22T06:42:51;21.3;70.1
78455;SHT31;67751;51.986;5.696;2023-06-22T06:45:23;21.4;70.8
78455;SHT31;67751;51.986;5.696;2023-06-22T06:47:53;21.5;69.9
78455;SHT31;67751;51.986;5.696;2023-06-22T06:50:22;21.5;70.3
78455;SHT31;67751;51.986;5.696;2023-06-22T06:52:52;21.6;70.3
78455;SHT31;67751;51.986;5.696;2023-06-22T06:55:24;21.6;69.5
78455;SHT31;67751;51.986;5.696;2023-06-22T06:57:54;21.7;69.9
78455;SHT31;67751;51.986;5.696;2023-06-22T07:00:23;21.8;69.2
78455;SHT31;67751;51.986;5.696;2023-06-22T07:02:53;21.8;69.2
78455;SHT31;67751;51.986;5.696;2023-06-22T07:05:23;21.9;68.6
78455;SHT31;67751;51.986;5.696;2023-06-22T07:07:52;21.9;69.0
78455;SHT31;67751;51.986;5.696;2023-06-22T07:10:22;22.0;69.1
78455;SHT31;67751;51.986;5.696;2023-06-22T07:12:52;22.1;68.6
78455;SHT31;67751;51.986;5.696;2023-06-22T07:15:21;22.1;68.2
78455;SHT31;67751;51.986;5.696;2023-06-22T07:17:51;22.2;67.9
78455;SHT31;67751;51.986;5.696;2023-06-22T07:20:22;22.3;67.2
78455;SHT31;67751;51.986;5.696;2023-06-22T07:22:52;22.3;65.9
78455;SHT31;67751;51.986;5.696;2023-06-22T07:25:22;22.4;65.7
78455;SHT31;67751;51.986;5.696;2023-06-22T07:28:00;22.4;65.9
78455;SHT31;67751;51.986;5.696;2023-06-22T07:30:31;22.5;65.6
78455;SHT31;67751;51.986;5.696;2023-06-22T07:33:02;22.5;65.1
78455;SHT31;67751;51.986;5.696;2023-06-22T07:35:35;22.6;64.9
78455;SHT31;67751;51.986;5.696;2023-06-22T07:38:05;22.7;65.1
78455;SHT31;67751;51.986;5.696;2023-06-22T07:40:34;22.7;64.7
78455;SHT31;67751;51.986;5.696;2023-06-22T07:43:04;22.8;63.9
78455;SHT31;67751;51.986;5.696;2023-06-22T07:45:34;22.8;64.0
78455;SHT31;67751;51.986;5.696;2023-06-22T07:48:04;22.9;64.3
78455;SHT31;67751;51.986;5.696;2023-06-22T07:50:34;23.0;64.5
78455;SHT31;67751;51.986;5.696;2023-06-22T07:53:03;23.0;63.6
78455;SHT31;67751;51.986;5.696;2023-06-22T07:55:33;23.1;63.6
78455;SHT31;67751;51.986;5.696;2023-06-22T07:58:04;23.1;63.3
78455;SHT31;67751;51.986;5.696;2023-06-22T08:00:37;23.2;62.5
78455;SHT31;67751;51.986;5.696;2023-06-22T08:03:07;23.2;61.0
78455;SHT31;67751;51.986;5.696;2023-06-22T08:05:37;23.2;62.2
78455;SHT31;67751;51.986;5.696;2023-06-22T08:08:06;23.3;61.8
78455;SHT31;67751;51.986;5.696;2023-06-22T08:10:36;23.3;63.2
78455;SHT31;67751;51.986;5.696;2023-06-22T08:13:07;23.3;63.2
78455;SHT31;67751;51.986;5.696;2023-06-22T08:15:37;23.4;62.8
78455;SHT31;67751;51.986;5.696;2023-06-22T08:18:09;23.4;64.3
78455;SHT31;67751;51.986;5.696;2023-06-22T08:20:38;23.4;63.0
78455;SHT31;67751;51.986;5.696;2023-06-22T08:23:10;23.4;62.3
78455;SHT31;67751;51.986;5.696;2023-06-22T08:25:41;23.5;61.3
78455;SHT31;67751;51.986;5.696;2023-06-22T08:28:11;23.5;61.2
78455;SHT31;67751;51.986;5.696;2023-06-22T08:30:41;23.5;61.3
78455;SHT31;67751;51.986;5.696;2023-06-22T08:33:11;23.5;61.4
78455;SHT31;67751;51.986;5.696;2023-06-22T08:35:40;23.5;62.1
78455;SHT31;67751;51.986;5.696;2023-06-22T08:38:10;23.6;61.5
78455;SHT31;67751;51.986;5.696;2023-06-22T08:40:41;23.6;60.9
78455;SHT31;67751;51.986;5.696;2023-06-22T08:43:11;23.6;62.7
78455;SHT31;67751;51.986;5.696;2023-06-22T08:45:40;23.7;62.0
78455;SHT31;67751;51.986;5.696;2023-06-22T08:48:10;23.7;61.7
78455;SHT31;67751;51.986;5.696;2023-06-22T08:50:40;23.7;61.6
78455;SHT31;67751;51.986;5.696;2023-06-22T08:53:09;23.8;61.3
78455;SHT31;67751;51.986;5.696;2023-06-22T08:55:39;23.8;61.1
78455;SHT31;67751;51.986;5.696;2023-06-22T08:58:09;23.8;59.8
78455;SHT31;67751;51.986;5.696;2023-06-22T09:00:38;23.9;60.2
78455;SHT31;67751;51.986;5.696;2023-06-22T09:03:08;23.9;61.7
78455;SHT31;67751;51.986;5.696;2023-06-22T09:05:38;24.0;58.2
78455;SHT31;67751;51.986;5.696;2023-06-22T09:08:08;24.0;58.2
78455;SHT31;67751;51.986;5.696;2023-06-22T09:10:37;24.0;59.2
78455;SHT31;67751;51.986;5.696;2023-06-22T09:13:07;24.0;58.8
78455;SHT31;67751;51.986;5.696;2023-06-22T09:15:39;24.1;59.4
78455;SHT31;67751;51.986;5.696;2023-06-22T09:18:10;24.1;60.0
78455;SHT31;67751;51.986;5.696;2023-06-22T09:20:40;24.1;59.5
78455;SHT31;67751;51.986;5.696;2023-06-22T09:23:10;24.2;59.9
78455;SHT31;67751;51.986;5.696;2023-06-22T09:25:42;24.2;59.5
78455;SHT31;67751;51.986;5.696;2023-06-22T09:28:13;24.2;59.8
78455;SHT31;67751;51.986;5.696;2023-06-22T09:30:45;24.3;59.0
78455;SHT31;67751;51.986;5.696;2023-06-22T09:33:14;24.3;57.8
78455;SHT31;67751;51.986;5.696;2023-06-22T09:35:47;24.3;57.5
78455;SHT31;67751;51.986;5.696;2023-06-22T09:38:18;24.3;57.4
78455;SHT31;67751;51.986;5.696;2023-06-22T09:40:48;24.3;57.2
78455;SHT31;67751;51.986;5.696;2023-06-22T09:43:17;24.3;56.6
78455;SHT31;67751;51.986;5.696;2023-06-22T09:45:47;24.3;56.4
78455;SHT31;67751;51.986;5.696;2023-06-22T09:48:16;24.3;55.6
78455;SHT31;67751;51.986;5.696;2023-06-22T09:50:48;24.3;56.8
78455;SHT31;67751;51.986;5.696;2023-06-22T09:53:18;24.3;56.5
78455;SHT31;67751;51.986;5.696;2023-06-22T09:55:47;24.4;57.7
78455;SHT31;67751;51.986;5.696;2023-06-22T09:58:17;24.4;57.8
78455;SHT31;67751;51.986;5.696;2023-06-22T10:00:47;24.4;57.5
78455;SHT31;67751;51.986;5.696;2023-06-22T10:03:16;24.4;57.8
78455;SHT31;67751;51.986;5.696;2023-06-22T10:05:46;24.4;57.2
78455;SHT31;67751;51.986;5.696;2023-06-22T10:08:15;24.4;57.5
78455;SHT31;67751;51.986;5.696;2023-06-22T10:10:45;24.4;57.5
78455;SHT31;67751;51.986;5.696;2023-06-22T10:13:15;24.4;58.2
78455;SHT31;67751;51.986;5.696;2023-06-22T10:15:46;24.4;57.2
78455;SHT31;67751;51.986;5.696;2023-06-22T10:18:19;24.3;57.4
78455;SHT31;67751;51.986;5.696;2023-06-22T10:20:50;24.3;58.5
78455;SHT31;67751;51.986;5.696;2023-06-22T10:23:20;24.3;57.7
78455;SHT31;67751;51.986;5.696;2023-06-22T10:25:50;24.3;56.6
78455;SHT31;67751;51.986;5.696;2023-06-22T10:28:19;24.3;57.5
78455;SHT31;67751;51.986;5.696;2023-06-22T10:30:51;24.3;56.3
78455;SHT31;67751;51.986;5.696;2023-06-22T10:33:20;24.3;57.8
78455;SHT31;67751;51.986;5.696;2023-06-22T10:35:52;24.3;59.0
78455;SHT31;67751;51.986;5.696;2023-06-22T10:38:22;24.3;58.0
78455;SHT31;67751;51.986;5.696;2023-06-22T10:40:51;24.3;57.2
78455;SHT31;67751;51.986;5.696;2023-06-22T10:43:21;24.3;57.6
78455;SHT31;67751;51.986;5.696;2023-06-22T10:45:51;24.3;58.1
78455;SHT31;67751;51.986;5.696;2023-06-22T10:48:22;24.3;57.6
78455;SHT31;67751;51.986;5.696;2023-06-22T10:50:51;24.3;59.3
78455;SHT31;67751;51.986;5.696;2023-06-22T10:53:22;24.3;59.8
78455;SHT31;67751;51.986;5.696;2023-06-22T10:55:53;24.3;59.4
78455;SHT31;67751;51.986;5.696;2023-06-22T10:58:23;24.3;58.6
78455;SHT31;67751;51.986;5.696;2023-06-22T11:00:54;24.3;58.3
78455;SHT31;67751;51.986;5.696;2023-06-22T11:03:23;24.3;59.0
78455;SHT31;67751;51.986;5.696;2023-06-22T11:05:53;24.4;58.8
78455;SHT31;67751;51.986;5.696;2023-06-22T11:08:22;24.4;59.3
78455;SHT31;67751;51.986;5.696;2023-06-22T11:10:53;24.4;60.2
78455;SHT31;67751;51.986;5.696;2023-06-22T11:13:22;24.4;60.6
78455;SHT31;67751;51.986;5.696;2023-06-22T11:15:52;24.4;61.0
78455;SHT31;67751;51.986;5.696;2023-06-22T11:18:22;24.4;58.4
78455;SHT31;67751;51.986;5.696;2023-06-22T11:20:52;24.4;59.2
78455;SHT31;67751;51.986;5.696;2023-06-22T11:23:21;24.4;59.5
78455;SHT31;67751;51.986;5.696;2023-06-22T11:25:53;24.4;58.7
78455;SHT31;67751;51.986;5.696;2023-06-22T11:28:23;24.4;59.5
78455;SHT31;67751;51.986;5.696;2023-06-22T11:30:52;24.4;60.8
78455;SHT31;67751;51.986;5.696;2023-06-22T11:33:22;24.4;60.2
78455;SHT31;67751;51.986;5.696;2023-06-22T11:35:52;24.4;60.6
78455;SHT31;67751;51.986;5.696;2023-06-22T11:38:24;24.4;59.4
78455;SHT31;67751;51.986;5.696;2023-06-22T11:40:53;24.4;60.1
78455;SHT31;67751;51.986;5.696;2023-06-22T11:43:23;24.4;62.1
78455;SHT31;67751;51.986;5.696;2023-06-22T11:45:53;24.4;61.1
78455;SHT31;67751;51.986;5.696;2023-06-22T11:48:24;24.4;62.2
78455;SHT31;67751;51.986;5.696;2023-06-22T11:50:53;24.4;62.0
78455;SHT31;67751;51.986;5.696;2023-06-22T11:53:25;24.4;62.5
78455;SHT31;67751;51.986;5.696;2023-06-22T11:55:55;24.4;61.5
78455;SHT31;67751;51.986;5.696;2023-06-22T11:58:25;24.4;63.3
78455;SHT31;67751;51.986;5.696;2023-06-22T12:00:55;24.4;64.0
78455;SHT31;67751;51.986;5.696;2023-06-22T12:03:24;24.3;64.9
78455;SHT31;67751;51.986;5.696;2023-06-22T12:05:54;24.3;65.7
78455;SHT31;67751;51.986;5.696;2023-06-22T12:08:24;24.3;67.1
78455;SHT31;67751;51.986;5.696;2023-06-22T12:10:53;24.3;67.8
78455;SHT31;67751;51.986;5.696;2023-06-22T12:13:23;24.2;68.5
78455;SHT31;67751;51.986;5.696;2023-06-22T12:15:52;24.2;68.4
78455;SHT31;67751;51.986;5.696;2023-06-22T12:18:24;24.1;69.2
78455;SHT31;67751;51.986;5.696;2023-06-22T12:20:54;24.1;69.7
78455;SHT31;67751;51.986;5.696;2023-06-22T12:23:23;24.1;70.1
78455;SHT31;67751;51.986;5.696;2023-06-22T12:25:55;24.0;70.4
78455;SHT31;67751;51.986;5.696;2023-06-22T12:28:26;24.0;70.8
78455;SHT31;67751;51.986;5.696;2023-06-22T12:30:56;23.9;70.8
78455;SHT31;67751;51.986;5.696;2023-06-22T12:33:25;23.9;71.4
78455;SHT31;67751;51.986;5.696;2023-06-22T12:35:55;23.8;71.7
78455;SHT31;67751;51.986;5.696;2023-06-22T12:38:24;23.7;71.7
78455;SHT31;67751;51.986;5.696;2023-06-22T12:40:54;23.7;72.2
78455;SHT31;67751;51.986;5.696;2023-06-22T12:43:23;23.6;72.2
78455;SHT31;67751;51.986;5.696;2023-06-22T12:45:53;23.6;72.3
78455;SHT31;67751;51.986;5.696;2023-06-22T12:48:25;23.5;72.9
78455;SHT31;67751;51.986;5.696;2023-06-22T12:50:55;23.5;72.7
78455;SHT31;67751;51.986;5.696;2023-06-22T12:53:24;23.5;73.3
78455;SHT31;67751;51.986;5.696;2023-06-22T12:55:54;23.4;73.6
78455;SHT31;67751;51.986;5.696;2023-06-22T12:58:24;23.4;73.7
78455;SHT31;67751;51.986;5.696;2023-06-22T13:00:53;23.4;73.9
78455;SHT31;67751;51.986;5.696;2023-06-22T13:03:23;23.4;74.5
78455;SHT31;67751;51.986;5.696;2023-06-22T13:05:55;23.3;74.4
78455;SHT31;67751;51.986;5.696;2023-06-22T13:08:25;23.3;74.2
78455;SHT31;67751;51.986;5.696;2023-06-22T13:10:54;23.3;74.0
78455;SHT31;67751;51.986;5.696;2023-06-22T13:13:25;23.2;74.5
78455;SHT31;67751;51.986;5.696;2023-06-22T13:15:56;23.2;75.1
78455;SHT31;67751;51.986;5.696;2023-06-22T13:18:26;23.2;75.2
78455;SHT31;67751;51.986;5.696;2023-06-22T13:20:55;23.1;75.6
78455;SHT31;67751;51.986;5.696;2023-06-22T13:23:27;23.1;74.8
78455;SHT31;67751;51.986;5.696;2023-06-22T13:25:57;23.1;75.2
78455;SHT31;67751;51.986;5.696;2023-06-22T13:28:27;23.0;75.1
78455;SHT31;67751;51.986;5.696;2023-06-22T13:30:57;23.0;75.3
78455;SHT31;67751;51.986;5.696;2023-06-22T13:33:27;23.0;75.4
78455;SHT31;67751;51.986;5.696;2023-06-22T13:35:57;23.0;75.8
78455;SHT31;67751;51.986;5.696;2023-06-22T13:38:26;22.9;75.6
78455;SHT31;67751;51.986;5.696;2023-06-22T13:40:56;22.9;75.8
78455;SHT31;67751;51.986;5.696;2023-06-22T13:43:27;22.9;76.2
78455;SHT31;67751;51.986;5.696;2023-06-22T13:45:57;22.8;75.9
78455;SHT31;67751;51.986;5.696;2023-06-22T13:48:27;22.8;76.2
78455;SHT31;67751;51.986;5.696;2023-06-22T13:50:57;22.8;76.1
78455;SHT31;67751;51.986;5.696;2023-06-22T13:53:26;22.8;75.9
78455;SHT31;67751;51.986;5.696;2023-06-22T13:55:56;22.8;75.6
78455;SHT31;67751;51.986;5.696;2023-06-22T13:58:26;22.8;75.7
78455;SHT31;67751;51.986;5.696;2023-06-22T14:00:55;22.8;75.4
78455;SHT31;67751;51.986;5.696;2023-06-22T14:03:25;22.7;75.7
78455;SHT31;67751;51.986;5.696;2023-06-22T14:05:55;22.7;75.5
78455;SHT31;67751;51.986;5.696;2023-06-22T14:08:25;22.7;75.7
78455;SHT31;67751;51.986;5.696;2023-06-22T14:10:55;22.7;75.8
78455;SHT31;67751;51.986;5.696;2023-06-22T14:13:26;22.7;75.9
78455;SHT31;67751;51.986;5.696;2023-06-22T14:15:58;22.7;75.8
78455;SHT31;67751;51.986;5.696;2023-06-22T14:18:27;22.6;76.1
78455;SHT31;67751;51.986;5.696;2023-06-22T14:20:57;22.6;75.6
78455;SHT31;67751;51.986;5.696;2023-06-22T14:23:27;22.6;76.0
78455;SHT31;67751;51.986;5.696;2023-06-22T14:25:56;22.6;75.9
78455;SHT31;67751;51.986;5.696;2023-06-22T14:28:26;22.5;75.8
78455;SHT31;67751;51.986;5.696;2023-06-22T14:30:56;22.5;75.2
78455;SHT31;67751;51.986;5.696;2023-06-22T14:33:25;22.5;75.0
78455;SHT31;67751;51.986;5.696;2023-06-22T14:35:55;22.5;75.5
78455;SHT31;67751;51.986;5.696;2023-06-22T14:38:24;22.4;75.3
78455;SHT31;67751;51.986;5.696;2023-06-22T14:40:55;22.4;75.2
78455;SHT31;67751;51.986;5.696;2023-06-22T14:43:24;22.4;75.4
78455;SHT31;67751;51.986;5.696;2023-06-22T14:45:54;22.4;75.3
78455;SHT31;67751;51.986;5.696;2023-06-22T14:48:24;22.3;75.0
78455;SHT31;67751;51.986;5.696;2023-06-22T14:50:53;22.3;75.3
78455;SHT31;67751;51.986;5.696;2023-06-22T14:53:23;22.3;75.2
78455;SHT31;67751;51.986;5.696;2023-06-22T14:55:53;22.2;75.5
78455;SHT31;67751;51.986;5.696;2023-06-22T14:58:23;22.2;75.0
78455;SHT31;67751;51.986;5.696;2023-06-22T15:00:53;22.2;75.6
78455;SHT31;67751;51.986;5.696;2023-06-22T15:03:22;22.1;75.9
78455;SHT31;67751;51.986;5.696;2023-06-22T15:05:55;22.1;75.9
78455;SHT31;67751;51.986;5.696;2023-06-22T15:08:25;22.1;75.8
78455;SHT31;67751;51.986;5.696;2023-06-22T15:10:57;22.0;75.5
78455;SHT31;67751;51.986;5.696;2023-06-22T15:13:30;22.0;75.6
78455;SHT31;67751;51.986;5.696;2023-06-22T15:16:02;22.0;75.8
78455;SHT31;67751;51.986;5.696;2023-06-22T15:18:33;21.9;75.9
78455;SHT31;67751;51.986;5.696;2023-06-22T15:21:03;21.9;76.0
78455;SHT31;67751;51.986;5.696;2023-06-22T15:23:34;21.9;76.3
78455;SHT31;67751;51.986;5.696;2023-06-22T15:26:05;21.9;76.6
78455;SHT31;67751;51.986;5.696;2023-06-22T15:28:36;21.9;76.7
78455;SHT31;67751;51.986;5.696;2023-06-22T15:31:06;21.8;76.9
78455;SHT31;67751;51.986;5.696;2023-06-22T15:33:36;21.8;76.6
78455;SHT31;67751;51.986;5.696;2023-06-22T15:36:06;21.8;76.6
78455;SHT31;67751;51.986;5.696;2023-06-22T15:38:36;21.8;77.1
78455;SHT31;67751;51.986;5.696;2023-06-22T15:41:05;21.8;77.0
78455;SHT31;67751;51.986;5.696;2023-06-22T15:43:35;21.8;77.1
78455;SHT31;67751;51.986;5.696;2023-06-22T15:46:05;21.8;77.1
78455;SHT31;67751;51.986;5.696;2023-06-22T15:48:34;21.8;77.3
78455;SHT31;67751;51.986;5.696;2023-06-22T15:51:04;21.8;77.5
78455;SHT31;67751;51.986;5.696;2023-06-22T15:53:34;21.8;77.6
78455;SHT31;67751;51.986;5.696;2023-06-22T15:56:03;21.8;77.9
78455;SHT31;67751;51.986;5.696;2023-06-22T15:58:37;21.8;77.8
78455;SHT31;67751;51.986;5.696;2023-06-22T16:01:07;21.8;78.0
78455;SHT31;67751;51.986;5.696;2023-06-22T16:03:37;21.8;78.0
78455;SHT31;67751;51.986;5.696;2023-06-22T16:06:08;21.8;78.1
78455;SHT31;67751;51.986;5.696;2023-06-22T16:08:37;21.8;78.1
78455;SHT31;67751;51.986;5.696;2023-06-22T16:11:07;21.8;78.2
78455;SHT31;67751;51.986;5.696;2023-06-22T16:13:37;21.8;78.1
78455;SHT31;67751;51.986;5.696;2023-06-22T16:16:07;21.9;78.1
78455;SHT31;67751;51.986;5.696;2023-06-22T16:18:37;21.9;78.3
78455;SHT31;67751;51.986;5.696;2023-06-22T16:21:08;21.9;78.4
78455;SHT31;67751;51.986;5.696;2023-06-22T16:23:40;21.9;78.3